createdAt,value
2022-08-12T00:02:31.688Z,38.0
2022-08-12T00:42:31.648Z,36.5
2022-08-12T01:02:31.610Z,35.7
2022-08-12T01:22:31.635Z,36.8
2022-08-12T01:42:31.555Z,38.0
2022-08-12T02:02:31.505Z,37.6
2022-08-12T02:22:31.476Z,37.9
2022-08-12T02:42:31.462Z,39.2
2022-08-12T03:02:31.442Z,41.4
2022-08-12T03:22:31.390Z,42.3
2022-08-12T03:42:31.386Z,40.6
2022-08-12T04:02:31.429Z,41.2
2022-08-12T04:42:31.309Z,41.9
2022-08-12T05:02:31.271Z,42.6
2022-08-12T05:22:31.247Z,42.6
2022-08-12T06:02:31.192Z,43.0
2022-08-12T07:02:31.143Z,40.9
2022-08-12T07:22:31.110Z,40.6
2022-08-12T07:42:31.123Z,39.2
2022-08-12T08:02:31.157Z,39.7
2022-08-12T08:22:31.013Z,38.9
2022-08-12T08:42:31.040Z,37.7
2022-08-12T09:02:30.979Z,34.5
2022-08-12T09:22:30.962Z,34.5
2022-08-12T09:42:30.921Z,32.6
2022-08-12T10:22:30.841Z,31.1
2022-08-12T10:42:30.881Z,28.2
2022-08-12T11:03:01.463Z,28.2
2022-08-12T11:22:30.839Z,28.3
2022-08-12T11:42:30.775Z,24.8
2022-08-12T12:02:30.791Z,26.6
2022-08-12T12:22:30.745Z,25.2
2022-08-12T12:42:40.580Z,23.9
2022-08-12T13:02:30.658Z,22.8
2022-08-12T13:22:30.627Z,23.6
2022-08-12T14:02:30.647Z,23.3
2022-08-12T14:22:30.625Z,23.1
2022-08-12T14:42:30.551Z,22.8
2022-08-12T15:02:30.588Z,23.1
2022-08-12T15:22:30.515Z,22.9
2022-08-12T15:42:30.473Z,23.0
2022-08-12T16:02:30.531Z,23.8
2022-08-12T16:22:30.442Z,23.8
2022-08-12T16:42:30.410Z,25.1
2022-08-12T17:02:30.396Z,25.0
2022-08-12T17:22:30.374Z,24.8
2022-08-12T17:42:30.387Z,25.7
2022-08-12T18:02:30.322Z,26.5
2022-08-12T18:22:30.261Z,27.9
2022-08-12T18:42:30.254Z,29.8
2022-08-12T19:02:30.308Z,31.6
2022-08-12T19:22:30.169Z,31.2
2022-08-12T19:42:30.238Z,32.5
2022-08-12T20:02:30.121Z,34.7
2022-08-12T20:22:30.117Z,38.7
2022-08-12T21:02:30.088Z,38.5
2022-08-12T21:22:30.102Z,41.3
2022-08-12T21:42:29.977Z,37.9
2022-08-12T22:02:30.035Z,38.1
2022-08-12T22:22:30.007Z,38.8
2022-08-12T22:42:30.553Z,40.3
2022-08-12T23:02:29.942Z,40.4
2022-08-12T23:22:29.907Z,40.9
2022-08-12T23:42:29.843Z,41.4
